Time;durP1;ratioP1;P1;durP2;ratioP2;P2;SDS_P1;SDS_P2;PMS_P1;PMS_P2;Temp;Humidity;BMP_temperature;BMP_pressure;BME280_temperature;BME280_humidity;BME280_pressure;Samples;Min_cycle;Max_cycle;Signal;HPM_P1;HPM_P2
2021/12/02 00:01:10;;;;;;;0.90;0.90;;;;;;;9.57;29.56;97434.00;5058709;28;20117;-74
2021/12/02 00:03:37;;;;;;;1.30;1.20;;;;;;;9.59;29.59;97445.22;5075290;28;20078;-73
2021/12/02 00:06:08;;;;;;;1.17;1.17;;;;;;;9.94;29.37;97420.06;5075055;28;20121;-74
2021/12/02 00:08:34;;;;;;;1.30;1.20;;;;;;;9.15;28.78;97442.31;5041310;28;20062;-74
2021/12/02 00:11:00;;;;;;;0.83;0.83;;;;;;;9.49;28.98;97451.91;5074161;28;20036;-73
2021/12/02 00:13:28;;;;;;;1.20;1.07;;;;;;;9.22;29.92;97442.34;5041245;28;20040;-76
2021/12/02 00:16:01;;;;;;;1.40;1.30;;;;;;;9.06;31.29;97450.66;5075315;28;20052;-75
2021/12/02 00:21:05;;;;;;;0.90;0.90;;;;;;;10.06;28.93;97460.84;5058135;28;20407;-75
2021/12/02 00:23:34;;;;;;;1.30;1.20;;;;;;;8.74;31.40;97462.00;5042225;28;20050;-75
2021/12/02 00:26:13;;;;;;;1.07;1.07;;;;;;;9.93;30.82;97450.25;5041524;28;20040;-75
2021/12/02 00:28:39;;;;;;;0.90;0.90;;;;;;;9.47;32.02;97419.53;5092664;28;20051;-75
2021/12/02 00:31:05;;;;;;;1.00;1.00;;;;;;;8.54;32.04;97476.00;5074463;28;20548;-74
2021/12/02 00:33:32;;;;;;;1.43;1.30;;;;;;;9.19;32.67;97477.19;5074308;28;20496;-74
2021/12/02 00:35:58;;;;;;;1.13;1.13;;;;;;;8.92;31.54;97486.88;5074636;28;20042;-75
2021/12/02 00:38:26;;;;;;;1.20;1.10;;;;;;;9.47;31.86;97478.63;5058702;28;20036;-75
2021/12/02 00:40:52;;;;;;;0.93;0.93;;;;;;;8.51;30.88;97449.09;5093638;28;20032;-75
2021/12/02 00:43:18;;;;;;;1.00;1.00;;;;;;;8.30;30.76;97500.28;5076953;28;20044;-75
2021/12/02 00:45:44;;;;;;;1.10;1.10;;;;;;;8.87;31.42;97494.63;5057693;28;20454;-75
2021/12/02 00:48:11;;;;;;;1.00;1.00;;;;;;;9.11;30.58;97507.31;5074977;28;20121;-75
2021/12/02 00:50:39;;;;;;;1.23;1.13;;;;;;;8.96;30.66;97517.25;5041697;28;20040;-75
2021/12/02 00:53:06;;;;;;;1.00;1.00;;;;;;;9.40;30.99;97504.28;5057973;28;20093;-75
2021/12/02 00:55:37;;;;;;;1.20;1.20;;;;;;;8.80;31.61;97509.66;5074192;28;20050;-75
2021/12/02 00:58:03;;;;;;;1.83;1.50;;;;;;;8.44;31.21;97525.78;5040746;28;20086;-75
2021/12/02 01:00:29;;;;;;;0.90;0.90;;;;;;;8.86;31.30;97521.25;5075090;28;20048;-76
2021/12/02 01:02:58;;;;;;;1.10;1.10;;;;;;;8.89;31.08;97534.13;5057959;28;20423;-78
2021/12/02 01:05:24;;;;;;;1.70;1.60;;;;;;;8.65;31.87;97526.69;5057279;28;20117;-78
2021/12/02 01:07:50;;;;;;;1.30;1.20;;;;;;;8.56;32.44;97531.34;5056395;28;20051;-79
2021/12/02 01:10:16;;;;;;;0.90;0.90;;;;;;;8.63;30.42;97542.75;5022211;28;20032;-76
2021/12/02 01:12:41;;;;;;;1.63;1.30;;;;;;;8.18;32.24;97522.16;5055663;28;20412;-77
2021/12/02 01:15:08;;;;;;;1.40;1.30;;;;;;;8.85;31.31;97538.16;5055320;28;20439;-77
2021/12/02 01:17:33;;;;;;;1.60;1.50;;;;;;;8.20;32.20;97541.28;5039451;28;20043;-77
2021/12/02 01:19:59;;;;;;;1.03;1.03;;;;;;;8.45;32.04;97540.66;5073638;28;20576;-78
2021/12/02 01:22:26;;;;;;;1.57;1.40;;;;;;;9.41;31.88;97547.50;5023276;28;20039;-75
2021/12/02 01:24:52;;;;;;;1.50;1.23;;;;;;;9.19;30.51;97551.31;5057344;28;20101;-77
2021/12/02 01:27:20;;;;;;;1.60;1.50;;;;;;;9.37;31.08;97543.59;5040090;28;20404;-78
2021/12/02 01:29:46;;;;;;;0.70;0.70;;;;;;;9.76;31.74;97549.75;5057110;28;20036;-78
2021/12/02 01:32:12;;;;;;;1.33;1.27;;;;;;;9.55;31.28;97547.31;5057257;28;20051;-78
2021/12/02 01:34:37;;;;;;;1.03;1.00;;;;;;;8.95;31.34;97546.56;5041469;28;20044;-79
2021/12/02 01:37:09;;;;;;;0.90;0.90;;;;;;;9.87;30.44;97535.91;5059069;28;20496;-78
2021/12/02 01:39:35;;;;;;;1.40;1.30;;;;;;;9.26;31.21;97549.50;5076611;28;20036;-77
2021/12/02 01:42:00;;;;;;;1.30;1.17;;;;;;;8.80;31.37;97554.66;5058256;28;20051;-76
2021/12/02 01:44:28;;;;;;;0.90;0.90;;;;;;;9.76;31.07;97552.41;5056749;28;20047;-74
2021/12/02 01:46:57;;;;;;;1.17;1.10;;;;;;;9.61;30.39;97565.03;5073456;28;20457;-76
2021/12/02 01:49:29;;;;;;;1.00;1.00;;;;;;;9.73;31.00;97523.66;5039626;28;20043;-76
2021/12/02 01:51:55;;;;;;;1.07;0.93;;;;;;;9.47;30.98;97575.84;5038299;28;20071;-75
2021/12/02 01:54:24;;;;;;;1.00;1.00;;;;;;;9.91;30.24;97568.13;5055399;28;20131;-76
2021/12/02 01:56:49;;;;;;;1.90;0.90;;;;;;;9.46;30.37;97590.09;5055461;28;20167;-76
2021/12/02 01:59:23;;;;;;;1.00;1.00;;;;;;;9.92;30.60;97578.53;5038207;28;20063;-75
2021/12/02 02:01:56;;;;;;;1.10;1.10;;;;;;;10.33;29.74;97586.31;5070914;28;20078;-76
2021/12/02 02:04:23;;;;;;;0.80;0.80;;;;;;;10.00;29.84;97588.13;5070847;28;20059;-76
2021/12/02 02:06:55;;;;;;;1.00;1.00;;;;;;;10.02;29.31;97591.38;5072590;28;20071;-76
2021/12/02 02:09:22;;;;;;;0.90;0.90;;;;;;;9.20;30.69;97590.00;5056480;28;20123;-76
2021/12/02 02:11:47;;;;;;;1.70;1.60;;;;;;;8.94;30.71;97582.81;5073303;28;20040;-76
2021/12/02 02:14:13;;;;;;;1.47;1.30;;;;;;;8.53;31.54;97574.06;5040396;28;20210;-76
2021/12/02 02:16:40;;;;;;;1.20;1.10;;;;;;;8.96;31.35;97569.38;5039516;28;20122;-76
2021/12/02 02:19:08;;;;;;;0.90;0.90;;;;;;;8.96;31.02;97588.72;5072676;28;20070;-76
2021/12/02 02:21:36;;;;;;;0.80;0.80;;;;;;;8.76;29.51;97556.06;5055697;28;20490;-75
2021/12/02 02:24:03;;;;;;;1.37;1.27;;;;;;;9.51;31.28;97588.47;5056530;28;20052;-77
2021/12/02 02:26:34;;;;;;;1.00;1.00;;;;;;;9.88;30.47;97595.06;5056057;28;20079;-76
2021/12/02 02:29:00;;;;;;;0.90;0.90;;;;;;;9.53;30.15;97598.88;5072560;28;20036;-77
2021/12/02 02:31:28;;;;;;;0.90;0.90;;;;;;;9.35;30.50;97562.34;5035076;28;20032;-77
2021/12/02 02:33:54;;;;;;;0.93;0.93;;;;;;;9.35;31.10;97610.03;5071479;28;20079;-78
2021/12/02 02:36:21;;;;;;;0.80;0.80;;;;;;;10.29;30.12;97616.91;5055117;28;20071;-79
2021/12/02 02:38:58;;;;;;;0.80;0.80;;;;;;;9.77;28.97;97598.31;5055163;28;20046;-77
2021/12/02 02:41:36;;;;;;;0.87;0.87;;;;;;;10.43;30.42;97609.75;5074286;28;20048;-77
2021/12/02 02:44:02;;;;;;;1.30;1.20;;;;;;;9.72;30.65;97614.81;5056440;28;20048;-75
2021/12/02 02:46:31;;;;;;;0.80;0.80;;;;;;;10.10;30.19;97626.50;5055967;28;20039;-76
2021/12/02 02:48:58;;;;;;;0.90;0.90;;;;;;;10.12;31.40;97619.16;5076403;28;20040;-76
2021/12/02 02:51:24;;;;;;;0.77;0.77;;;;;;;9.77;31.07;97619.50;5027627;28;20445;-77
2021/12/02 02:53:52;;;;;;;0.80;0.80;;;;;;;10.42;30.57;97627.53;5043206;28;20142;-76
2021/12/02 02:56:20;;;;;;;0.80;0.80;;;;;;;9.39;28.89;97626.34;5059410;28;20461;-76
2021/12/02 03:09:11;;;;;;;1.20;1.07;;;;;;;9.27;30.72;97620.81;5060507;28;20040;-76
2021/12/02 03:11:46;;;;;;;1.23;1.13;;;;;;;9.48;30.18;97625.97;5077360;28;20036;-76
2021/12/02 03:14:16;;;;;;;0.87;0.87;;;;;;;9.59;30.90;97627.22;5073077;28;20036;-76
2021/12/02 03:16:45;;;;;;;0.70;0.70;;;;;;;9.34;29.60;97631.44;5058988;28;20040;-75
2021/12/02 03:19:15;;;;;;;1.00;1.00;;;;;;;9.83;30.01;97640.72;5055230;28;20055;-76
2021/12/02 03:21:41;;;;;;;0.70;0.70;;;;;;;9.10;29.65;97645.19;5074587;28;20093;-75
2021/12/02 03:24:07;;;;;;;0.70;0.70;;;;;;;9.63;31.47;97634.56;5074544;28;20504;-75
2021/12/02 03:26:33;;;;;;;1.00;1.00;;;;;;;8.90;31.70;97597.47;5041620;28;20380;-75
2021/12/02 03:28:59;;;;;;;0.80;0.80;;;;;;;9.26;31.75;97642.19;5042731;28;20036;-76
2021/12/02 03:31:25;;;;;;;0.83;0.83;;;;;;;8.90;30.26;97607.22;5025476;28;20452;-76
2021/12/02 03:33:51;;;;;;;0.70;0.70;;;;;;;9.59;31.07;97622.75;5025492;28;20044;-75
2021/12/02 03:36:17;;;;;;;1.03;1.03;;;;;;;9.47;30.68;97648.16;5074793;28;20036;-74
2021/12/02 03:38:44;;;;;;;0.97;0.97;;;;;;;9.44;31.24;97667.13;5074923;28;20054;-75
2021/12/02 03:41:09;;;;;;;0.87;0.80;;;;;;;9.33;30.75;97651.78;5092418;28;20054;-74
2021/12/02 03:43:36;;;;;;;0.80;0.80;;;;;;;9.53;31.12;97659.81;5074620;28;20040;-73
2021/12/02 03:46:03;;;;;;;1.00;1.00;;;;;;;9.62;30.35;97662.09;5074979;28;20079;-73
2021/12/02 03:48:28;;;;;;;1.00;1.00;;;;;;;9.44;30.73;97632.69;5058637;28;20042;-73
2021/12/02 03:50:54;;;;;;;0.90;0.90;;;;;;;9.44;30.80;97645.91;5057557;28;20531;-73
2021/12/02 03:53:20;;;;;;;1.17;1.00;;;;;;;9.36;30.42;97663.84;5074131;28;20082;-73
2021/12/02 03:55:45;;;;;;;0.73;0.73;;;;;;;9.79;30.70;97652.72;5057525;28;20044;-74
2021/12/02 03:58:11;;;;;;;0.87;0.87;;;;;;;9.71;30.33;97658.25;5041193;28;20047;-74
2021/12/02 04:00:37;;;;;;;0.73;0.73;;;;;;;9.72;30.92;97654.56;5058463;28;20036;-73
2021/12/02 04:03:02;;;;;;;1.50;1.40;;;;;;;9.59;30.52;97670.44;5075418;28;20467;-74
2021/12/02 04:05:28;;;;;;;0.83;0.83;;;;;;;9.93;30.40;97677.47;5075297;28;20088;-74
2021/12/02 04:07:54;;;;;;;1.00;1.00;;;;;;;9.21;30.34;97663.16;5057739;28;20322;-74
2021/12/02 04:10:21;;;;;;;0.87;0.87;;;;;;;8.87;30.99;97682.56;5040644;28;20495;-74
2021/12/02 04:13:07;;;;;;;0.90;0.90;;;;;;;9.24;29.78;97690.06;5024366;28;20135;-74
2021/12/02 04:15:40;;;;;;;1.10;1.10;;;;;;;8.76;31.61;97680.44;5060331;28;20043;-73
2021/12/02 04:18:09;;;;;;;1.67;1.30;;;;;;;9.45;31.19;97676.72;5040909;28;20482;-73
2021/12/02 04:20:37;;;;;;;1.03;1.03;;;;;;;8.60;30.30;97696.59;5057478;28;20044;-73
2021/12/02 04:23:03;;;;;;;0.80;0.80;;;;;;;8.77;30.83;97689.19;5057255;28;20424;-73
2021/12/02 04:25:29;;;;;;;1.03;1.00;;;;;;;9.02;30.71;97698.31;5043014;28;20036;-75
2021/12/02 04:27:55;;;;;;;0.90;0.90;;;;;;;9.15;30.88;97693.88;5061732;28;20101;-70
2021/12/02 04:30:23;;;;;;;0.80;0.80;;;;;;;9.40;30.42;97691.56;5056717;28;20084;-70
2021/12/02 04:32:50;;;;;;;0.87;0.87;;;;;;;9.26;30.17;97698.63;5073540;28;20051;-78
2021/12/02 04:35:16;;;;;;;0.90;0.90;;;;;;;9.04;30.01;97697.09;5074716;28;20059;-78
2021/12/02 04:37:45;;;;;;;0.87;0.87;;;;;;;9.23;31.26;97696.38;5055448;28;20044;-75
2021/12/02 04:40:16;;;;;;;0.90;0.90;;;;;;;9.97;30.35;97700.72;5055535;28;20147;-76
2021/12/02 04:42:42;;;;;;;0.70;0.70;;;;;;;9.20;29.36;97715.31;5074796;28;20094;-77
2021/12/02 04:45:09;;;;;;;1.03;0.90;;;;;;;9.75;30.42;97722.25;5057076;28;20050;-75
2021/12/02 04:47:34;;;;;;;0.90;0.90;;;;;;;9.06;30.31;97695.06;5057166;28;20048;-76
2021/12/02 04:50:00;;;;;;;1.10;1.00;;;;;;;7.45;30.32;97711.91;5040737;28;20936;-77
2021/12/02 04:52:26;;;;;;;0.83;0.83;;;;;;;8.51;30.34;97722.41;5040629;28;20036;-80
2021/12/02 04:54:52;;;;;;;1.17;1.00;;;;;;;7.93;29.80;97705.97;5075017;28;20101;-76
2021/12/02 04:57:17;;;;;;;0.90;0.90;;;;;;;8.52;30.64;97723.19;5092540;28;20067;-74
2021/12/02 04:59:43;;;;;;;0.80;0.80;;;;;;;8.77;30.18;97711.19;5091167;28;20040;-78
2021/12/02 05:02:08;;;;;;;0.80;0.80;;;;;;;8.38;30.00;97708.22;5073834;28;20500;-78
2021/12/02 05:04:34;;;;;;;0.73;0.73;;;;;;;7.95;29.49;97688.09;5056746;28;20055;-77
2021/12/02 05:07:00;;;;;;;0.80;0.80;;;;;;;8.06;28.95;97671.72;5070473;28;20132;-74
2021/12/02 05:09:26;;;;;;;0.70;0.70;;;;;;;8.87;30.36;97740.78;5068045;28;20063;-74
2021/12/02 05:11:51;;;;;;;0.60;0.60;;;;;;;8.26;29.73;97685.94;5049904;28;20036;-74
2021/12/02 05:14:17;;;;;;;0.90;0.90;;;;;;;8.83;28.35;97746.63;5050830;28;20397;-70
2021/12/02 05:16:43;;;;;;;0.70;0.70;;;;;;;8.77;30.44;97748.22;5085227;28;20063;-69
2021/12/02 05:19:09;;;;;;;0.80;0.80;;;;;;;8.47;28.72;97744.94;5063707;28;20044;-69
2021/12/02 05:21:34;;;;;;;0.90;0.90;;;;;;;8.62;29.40;97742.22;5065887;28;20040;-71
2021/12/02 05:24:00;;;;;;;0.70;0.70;;;;;;;8.73;30.36;97751.47;5066759;28;20464;-71
2021/12/02 05:26:26;;;;;;;0.77;0.77;;;;;;;8.97;30.39;97754.47;5068104;28;20048;-71
2021/12/02 05:28:53;;;;;;;0.90;0.90;;;;;;;9.43;29.78;97760.03;5068888;28;20052;-70
2021/12/02 05:31:20;;;;;;;1.13;1.03;;;;;;;8.66;29.78;97726.78;5069269;28;20097;-77
2021/12/02 05:33:45;;;;;;;1.00;1.00;;;;;;;8.37;28.75;97760.31;5053699;28;20133;-73
2021/12/02 05:36:11;;;;;;;0.90;0.90;;;;;;;8.55;29.37;97767.78;5021366;28;20167;-76
2021/12/02 05:38:37;;;;;;;0.87;0.83;;;;;;;8.24;28.74;97748.81;5039237;28;20063;-76
2021/12/02 05:41:03;;;;;;;1.10;1.00;;;;;;;8.54;28.77;97774.09;5052698;28;20072;-77
2021/12/02 05:43:29;;;;;;;0.93;0.93;;;;;;;8.05;29.28;97774.00;5068085;28;20573;-72
2021/12/02 05:45:55;;;;;;;1.10;1.10;;;;;;;7.85;29.56;97767.69;5051232;28;20072;-74
2021/12/02 05:48:21;;;;;;;1.20;1.10;;;;;;;8.22;30.00;97782.50;5035030;28;20040;-75
2021/12/02 05:50:47;;;;;;;1.00;1.00;;;;;;;8.44;27.96;97773.63;5051629;28;20465;-78
2021/12/02 05:53:13;;;;;;;0.87;0.87;;;;;;;8.57;29.11;97793.06;5034408;28;20591;-78
2021/12/02 05:55:38;;;;;;;1.10;1.00;;;;;;;9.02;29.57;97788.31;5034347;28;20040;-76
2021/12/02 05:58:06;;;;;;;1.07;0.70;;;;;;;7.79;30.17;97653.97;5051161;28;20048;-75
2021/12/02 06:00:36;;;;;;;1.20;1.20;;;;;;;8.25;29.21;97787.44;5035146;28;20047;-75
2021/12/02 06:03:01;;;;;;;0.83;0.83;;;;;;;8.34;29.54;97775.75;5051357;28;20037;-76
2021/12/02 06:05:27;;;;;;;0.87;0.87;;;;;;;8.59;29.97;97787.56;5050417;28;20519;-75
2021/12/02 06:07:56;;;;;;;1.47;1.00;;;;;;;8.43;29.38;97761.38;5050539;28;20553;-73
2021/12/02 06:10:23;;;;;;;1.07;0.70;;;;;;;9.32;28.81;97781.78;5051196;28;20558;-75
2021/12/02 06:12:49;;;;;;;2.83;1.17;;;;;;;8.38;28.84;97790.22;5051108;28;20094;-76
2021/12/02 06:15:15;;;;;;;1.70;1.27;;;;;;;8.19;29.87;97744.06;5051375;28;20048;-73
2021/12/02 06:17:42;;;;;;;1.00;1.00;;;;;;;8.55;30.59;97812.75;5069422;28;20040;-74
2021/12/02 06:20:09;;;;;;;1.20;1.17;;;;;;;8.86;28.50;97823.84;5071094;28;20060;-75
2021/12/02 06:22:35;;;;;;;0.87;0.83;;;;;;;7.76;28.55;97803.16;5056674;28;20043;-75
2021/12/02 06:27:31;;;;;;;0.93;0.93;;;;;;;8.11;30.31;97757.38;5076221;28;20044;-74
2021/12/02 06:29:56;;;;;;;1.77;1.10;;;;;;;8.81;28.99;97839.47;5024896;28;20044;-71
2021/12/02 06:32:22;;;;;;;0.93;0.93;;;;;;;8.59;29.24;97820.13;5066386;28;20032;-76
2021/12/02 06:34:48;;;;;;;1.23;1.13;;;;;;;8.51;28.94;97814.16;5041735;28;20040;-75
2021/12/02 06:37:13;;;;;;;1.10;1.00;;;;;;;9.08;30.38;97836.03;5057582;28;20805;-74
2021/12/02 06:39:39;;;;;;;0.90;0.90;;;;;;;9.27;30.42;97831.91;5041535;28;20040;-72
2021/12/02 06:42:05;;;;;;;0.87;0.87;;;;;;;9.21;28.66;97819.44;5041403;28;20040;-72
2021/12/02 06:44:32;;;;;;;1.10;1.10;;;;;;;9.43;29.56;97832.41;5041303;28;20130;-76
2021/12/02 06:46:58;;;;;;;1.23;1.13;;;;;;;9.40;28.42;97824.00;5057557;28;20044;-75
2021/12/02 06:49:23;;;;;;;0.80;0.80;;;;;;;9.10;29.94;97823.41;5057001;28;20102;-74
2021/12/02 06:51:49;;;;;;;1.20;1.10;;;;;;;8.88;29.18;97808.59;5057582;28;20066;-74
2021/12/02 06:54:15;;;;;;;1.77;1.67;;;;;;;8.37;28.39;97830.91;5057504;28;20563;-74
2021/12/02 06:56:40;;;;;;;1.47;1.37;;;;;;;8.23;28.94;97834.41;5041268;28;20052;-76
2021/12/02 06:59:06;;;;;;;1.00;1.00;;;;;;;9.49;29.88;97818.38;5074334;28;20119;-70
2021/12/02 07:01:34;;;;;;;1.07;1.07;;;;;;;10.34;28.49;97828.53;5057570;28;20059;-73
2021/12/02 07:04:00;;;;;;;1.50;0.90;;;;;;;9.43;28.05;97818.31;5074449;28;20048;-75
2021/12/02 07:06:25;;;;;;;1.10;1.10;;;;;;;9.78;29.53;97828.72;5057600;28;20461;-76
2021/12/02 07:08:51;;;;;;;1.90;0.77;;;;;;;9.70;28.82;97820.13;5041371;28;20499;-76
2021/12/02 07:11:17;;;;;;;0.97;0.97;;;;;;;9.99;29.78;97820.63;5057647;28;20483;-75
2021/12/02 07:13:43;;;;;;;1.13;0.90;;;;;;;10.21;28.42;97830.16;5058465;28;20456;-75
2021/12/02 07:16:08;;;;;;;1.00;1.00;;;;;;;9.58;30.16;97829.66;5041375;28;20555;-74
2021/12/02 07:18:41;;;;;;;1.50;1.20;;;;;;;9.93;29.60;97824.09;5058151;28;20060;-74
2021/12/02 07:21:07;;;;;;;0.70;0.70;;;;;;;9.22;28.57;97852.84;5074878;28;20043;-72
2021/12/02 07:23:33;;;;;;;2.73;1.20;;;;;;;9.53;28.08;97834.72;5073887;28;20050;-72
2021/12/02 07:25:59;;;;;;;2.57;1.20;;;;;;;10.11;29.17;97829.72;5092118;28;20498;-75
2021/12/02 07:28:25;;;;;;;1.03;0.93;;;;;;;10.33;27.84;97834.88;5057242;28;20448;-74
2021/12/02 07:30:53;;;;;;;1.07;0.97;;;;;;;10.96;26.93;97808.59;5057463;28;20061;-75
2021/12/02 07:33:18;;;;;;;1.10;1.00;;;;;;;10.88;28.96;97815.97;5056741;28;20119;-78
2021/12/02 07:35:44;;;;;;;1.07;1.07;;;;;;;9.75;27.48;97831.75;5073297;28;20138;-75
2021/12/02 07:38:10;;;;;;;1.50;1.40;;;;;;;9.27;27.80;97824.75;5073930;28;20040;-74
2021/12/02 07:40:39;;;;;;;1.07;1.07;;;;;;;9.37;28.30;97830.53;5057228;28;20043;-70
2021/12/02 07:43:05;;;;;;;0.83;0.83;;;;;;;8.73;29.23;97850.19;5074116;28;20109;-73
2021/12/02 07:45:34;;;;;;;1.07;1.07;;;;;;;8.93;29.44;97835.31;5056479;28;20044;-74
2021/12/02 07:48:00;;;;;;;2.47;2.03;;;;;;;9.14;28.70;97853.81;5057548;28;20052;-77
2021/12/02 07:50:25;;;;;;;1.57;1.47;;;;;;;9.66;27.85;97835.59;5040470;28;20564;-75
2021/12/02 07:52:54;;;;;;;0.70;0.70;;;;;;;9.46;28.76;97844.44;5039821;28;20522;-75
2021/12/02 07:55:21;;;;;;;1.53;1.43;;;;;;;8.70;30.35;97840.00;5073493;28;20036;-75
2021/12/02 07:57:47;;;;;;;1.10;1.10;;;;;;;9.16;29.24;97843.00;5073171;28;20096;-75
2021/12/02 08:00:19;;;;;;;1.13;1.13;;;;;;;9.18;29.76;97838.34;5073452;28;20368;-76
2021/12/02 08:02:46;;;;;;;2.20;1.10;;;;;;;8.77;29.94;97819.69;5040838;28;20036;-75
2021/12/02 08:05:13;;;;;;;1.23;1.13;;;;;;;8.38;29.55;97796.34;5057441;28;20184;-76
2021/12/02 08:07:40;;;;;;;1.13;1.13;;;;;;;8.42;30.53;97847.03;5091100;28;20057;-75
2021/12/02 08:10:11;;;;;;;1.87;1.40;;;;;;;8.35;30.78;97844.31;5056441;28;20088;-68
2021/12/02 08:12:38;;;;;;;1.65;1.55;;;;;;;8.27;29.71;97839.13;5039602;28;20058;-69
2021/12/02 08:15:05;;;;;;;1.50;1.40;;;;;;;8.68;30.24;97843.81;5073185;28;20051;-74
2021/12/02 08:17:31;;;;;;;1.03;1.03;;;;;;;7.51;30.89;97796.53;5056410;28;20036;-75
2021/12/02 08:19:57;;;;;;;1.17;1.17;;;;;;;8.20;30.08;97817.06;5056149;28;20052;-73
2021/12/02 08:22:23;;;;;;;1.37;1.27;;;;;;;7.75;31.13;97814.69;5040408;28;20032;-76
2021/12/02 08:24:48;;;;;;;3.03;1.77;;;;;;;7.60;31.64;97829.75;5057385;28;20079;-75
2021/12/02 08:27:14;;;;;;;4.20;1.80;;;;;;;8.37;29.91;97833.53;5055891;28;20079;-75
2021/12/02 08:29:41;;;;;;;0.73;0.73;;;;;;;8.32;30.46;97806.84;5072849;28;20048;-75
2021/12/02 08:32:07;;;;;;;0.80;0.80;;;;;;;8.33;29.58;97829.66;5072844;28;20044;-75
2021/12/02 08:34:33;;;;;;;1.73;1.60;;;;;;;8.49;28.34;97810.88;5056749;28;20094;-76
2021/12/02 08:36:58;;;;;;;1.77;1.67;;;;;;;8.21;30.08;97831.13;5055832;28;20055;-75
2021/12/02 08:39:27;;;;;;;0.70;0.70;;;;;;;7.97;29.56;97818.22;5039398;28;20059;-76
2021/12/02 08:41:54;;;;;;;0.90;0.90;;;;;;;7.78;30.00;97787.91;5057719;28;20062;-76
2021/12/02 08:44:22;;;;;;;1.57;1.47;;;;;;;8.49;30.38;97829.38;5056500;28;20039;-76
2021/12/02 08:46:50;;;;;;;1.23;1.17;;;;;;;8.40;30.06;97810.19;5055423;28;20101;-77
2021/12/02 08:49:17;;;;;;;1.93;1.77;;;;;;;8.57;30.10;97832.75;5091190;28;20051;-75
2021/12/02 08:51:44;;;;;;;1.43;1.33;;;;;;;8.41;29.92;97814.47;5090315;28;20078;-75
2021/12/02 08:54:11;;;;;;;2.37;1.70;;;;;;;9.13;29.23;97812.44;5055690;28;20196;-76
2021/12/02 08:56:37;;;;;;;1.47;1.40;;;;;;;8.50;28.89;97817.81;5023686;28;20036;-75
2021/12/02 08:59:03;;;;;;;1.40;1.40;;;;;;;8.12;29.30;97805.78;5057240;28;20499;-75
2021/12/02 09:01:29;;;;;;;1.20;1.20;;;;;;;8.39;29.49;97823.59;5056186;28;20048;-74
2021/12/02 09:03:56;;;;;;;1.50;1.40;;;;;;;8.38;29.62;97726.72;5039210;28;20063;-75
2021/12/02 09:06:27;;;;;;;1.73;1.63;;;;;;;9.48;30.15;97789.44;5103719;27;1359503;-77
2021/12/02 09:08:58;;;;;;;5.50;2.03;;;;;;;10.19;27.94;97800.34;5127715;27;20043;-77
2021/12/02 09:11:24;;;;;;;1.85;1.75;;;;;;;9.12;29.70;97805.50;5110567;28;20044;-76
2021/12/02 09:13:51;;;;;;;0.80;0.80;;;;;;;8.73;29.84;97804.38;5109423;28;20042;-76
2021/12/02 09:16:17;;;;;;;0.90;0.90;;;;;;;8.98;29.61;97772.00;5126717;28;20031;-76
2021/12/02 09:18:42;;;;;;;1.43;1.37;;;;;;;8.96;29.84;97789.91;5127330;28;20043;-74
2021/12/02 09:21:08;;;;;;;1.90;1.80;;;;;;;8.15;30.51;97797.47;5126305;28;20051;-75
2021/12/02 09:23:34;;;;;;;1.00;1.00;;;;;;;8.80;29.63;97806.06;5109308;28;20076;-77
2021/12/02 09:25:59;;;;;;;5.07;2.70;;;;;;;9.28;28.62;97791.97;5081547;28;20040;-75
2021/12/02 09:28:26;;;;;;;1.10;1.10;;;;;;;8.69;29.43;97758.16;5088874;28;20048;-76
2021/12/02 09:30:52;;;;;;;1.93;1.80;;;;;;;8.95;30.40;97812.09;5106706;28;20507;-75
2021/12/02 09:33:17;;;;;;;1.30;1.20;;;;;;;8.54;30.24;97785.50;5089258;28;20051;-75
2021/12/02 09:35:44;;;;;;;1.80;1.53;;;;;;;8.54;30.71;97804.03;5106502;28;20356;-76
2021/12/02 09:38:10;;;;;;;1.00;1.00;;;;;;;8.73;29.78;97784.03;5088454;28;20043;-75
2021/12/02 09:40:37;;;;;;;1.60;1.40;;;;;;;9.21;29.44;97737.31;5106119;28;20044;-75
2021/12/02 09:43:03;;;;;;;1.13;1.13;;;;;;;9.36;30.10;97802.41;5071948;28;20130;-75
2021/12/02 09:45:29;;;;;;;1.33;1.33;;;;;;;9.07;29.71;97786.72;5106411;28;20050;-74
2021/12/02 09:47:56;;;;;;;1.53;1.43;;;;;;;9.27;30.31;97784.22;5087778;28;20043;-73
2021/12/02 09:50:30;;;;;;;1.20;1.20;;;;;;;9.30;30.11;97781.19;5104956;28;20043;-75
2021/12/02 09:53:04;;;;;;;1.17;1.17;;;;;;;8.72;30.70;97771.00;5105209;28;20495;-72
2021/12/02 09:55:40;;;;;;;1.77;1.63;;;;;;;8.72;30.23;97784.22;5105439;28;20032;-75
2021/12/02 09:58:10;;;;;;;0.90;0.90;;;;;;;8.95;29.70;97787.47;5089581;28;20043;-75
2021/12/02 10:00:46;;;;;;;0.90;0.90;;;;;;;8.83;28.76;97736.03;5088293;28;20040;-76
2021/12/02 10:03:33;;;;;;;1.10;1.10;;;;;;;8.55;29.18;97693.72;5121848;28;20644;-73
2021/12/02 10:06:05;;;;;;;0.90;0.90;;;;;;;9.74;29.86;97758.56;5087335;28;20058;-71
2021/12/02 10:08:46;;;;;;;1.17;1.17;;;;;;;9.55;30.11;97767.25;5105062;28;20059;-77
2021/12/02 10:11:15;;;;;;;1.85;1.75;;;;;;;8.93;29.66;97720.66;5089418;28;20475;-76
2021/12/02 10:13:47;;;;;;;0.70;0.70;;;;;;;9.28;28.80;97756.72;5088323;28;20075;-77
2021/12/02 10:16:21;;;;;;;1.00;1.00;;;;;;;9.72;28.87;97749.16;5068154;28;20493;-76
2021/12/02 10:21:26;;;;;;;0.87;0.87;;;;;;;9.68;29.46;97750.59;5091256;28;20046;-78
2021/12/02 10:23:53;;;;;;;0.90;0.90;;;;;;;8.98;29.67;97750.81;5090447;28;20048;-78
2021/12/02 10:26:21;;;;;;;1.03;1.03;;;;;;;9.65;29.39;97753.63;5040390;28;20534;-78
2021/12/02 10:28:48;;;;;;;1.50;1.47;;;;;;;9.55;28.57;97743.41;5074681;28;20040;-74
2021/12/02 10:31:21;;;;;;;1.67;1.57;;;;;;;9.68;29.28;97755.88;5091457;28;20043;-77
2021/12/02 10:33:51;;;;;;;2.83;2.63;;;;;;;9.24;29.84;97737.72;5090758;28;20051;-77
2021/12/02 10:36:36;;;;;;;0.83;0.83;;;;;;;9.83;29.80;97764.50;5090570;28;20044;-78
2021/12/02 10:39:21;;;;;;;0.87;0.87;;;;;;;9.83;29.60;97746.78;5090606;28;20047;-78
2021/12/02 10:42:00;;;;;;;1.90;1.67;;;;;;;10.53;28.05;97743.69;5092275;28;20074;-77
2021/12/02 10:44:33;;;;;;;1.33;1.23;;;;;;;9.88;28.56;97727.63;5075284;28;20135;-77
2021/12/02 10:47:08;;;;;;;0.97;0.97;;;;;;;10.67;27.73;97733.88;5076180;28;20063;-77
2021/12/02 10:49:42;;;;;;;1.00;1.00;;;;;;;10.37;28.69;97725.50;5076498;28;20044;-78
2021/12/02 10:52:11;;;;;;;0.77;0.77;;;;;;;9.83;28.56;97728.22;5093186;28;20044;-73
2021/12/02 10:54:39;;;;;;;0.90;0.90;;;;;;;9.86;28.39;97711.09;5110471;28;20071;-72
2021/12/02 10:57:15;;;;;;;1.20;1.20;;;;;;;10.38;28.09;97724.47;5094600;28;20051;-76
2021/12/02 10:59:42;;;;;;;1.00;1.00;;;;;;;9.54;28.75;97694.06;5095076;28;20047;-77
2021/12/02 11:02:11;;;;;;;2.40;1.10;;;;;;;10.59;28.20;97720.81;5080016;28;20044;-75
2021/12/02 11:04:39;;;;;;;0.80;0.80;;;;;;;10.46;28.13;97721.59;5078796;28;20093;-79
2021/12/02 11:07:09;;;;;;;1.40;1.30;;;;;;;10.70;29.25;97681.16;5094843;28;20066;-75
2021/12/02 11:09:36;;;;;;;1.13;1.13;;;;;;;10.20;27.93;97713.63;5092328;28;20447;-75
2021/12/02 11:12:11;;;;;;;1.50;1.40;;;;;;;10.94;28.03;97719.53;5091257;28;20184;-78
2021/12/02 11:14:41;;;;;;;1.77;1.67;;;;;;;10.15;28.20;97718.72;5081080;28;20020;-70
2021/12/02 11:17:15;;;;;;;1.40;1.30;;;;;;;10.27;28.40;97712.63;5094432;28;20142;-69
2021/12/02 11:19:46;;;;;;;0.80;0.80;;;;;;;10.29;27.79;97714.28;5069531;28;20051;-77
2021/12/02 11:22:20;;;;;;;1.30;1.30;;;;;;;10.59;27.94;97702.22;5095097;28;20051;-78
2021/12/02 11:24:48;;;;;;;1.40;1.30;;;;;;;10.47;27.52;97702.00;5094213;28;20348;-78
2021/12/02 11:27:16;;;;;;;1.00;1.00;;;;;;;10.89;27.94;97700.75;5090863;28;20132;-77
2021/12/02 11:29:50;;;;;;;1.50;1.40;;;;;;;11.58;27.14;97697.28;5088470;28;20039;-78
2021/12/02 11:32:29;;;;;;;1.10;1.10;;;;;;;10.96;27.71;97688.28;5056342;28;20039;-80
2021/12/02 11:35:15;;;;;;;1.20;1.20;;;;;;;11.47;26.69;97671.34;5090176;28;20071;-78
2021/12/02 11:37:43;;;;;;;1.40;1.30;;;;;;;11.46;28.71;97645.00;5089545;28;20058;-80
2021/12/02 11:40:13;;;;;;;1.60;1.10;;;;;;;11.90;29.33;97661.75;5073205;28;20039;-75
2021/12/02 11:42:40;;;;;;;1.50;1.40;;;;;;;11.33;27.22;97663.66;5057640;28;20051;-79
2021/12/02 11:45:09;;;;;;;1.63;1.47;;;;;;;11.62;27.47;97658.63;5074788;28;20470;-77
2021/12/02 11:47:35;;;;;;;1.40;1.30;;;;;;;10.86;28.51;97658.69;5057414;28;20093;-79
2021/12/02 11:50:02;;;;;;;1.03;0.93;;;;;;;11.21;28.89;97613.00;5072057;28;20550;-78
2021/12/02 11:52:28;;;;;;;1.30;1.20;;;;;;;11.05;28.37;97641.88;5089152;28;20044;-78
2021/12/02 11:54:56;;;;;;;1.20;1.10;;;;;;;10.79;27.78;97640.13;5055739;28;20052;-79
2021/12/02 11:57:23;;;;;;;4.13;1.20;;;;;;;11.22;29.22;97635.91;5073006;28;20036;-79
2021/12/02 11:59:48;;;;;;;1.60;1.50;;;;;;;11.02;27.27;97627.19;5056351;28;20093;-80
2021/12/02 12:02:18;;;;;;;1.27;1.27;;;;;;;11.41;28.16;97642.97;5056328;28;20043;-75